sensor_id;sensor_type;location;lat;lon;timestamp;P1;durP1;ratioP1;P2;durP2;ratioP2
13250;SDS011;6692;50.710;7.180;2022-09-09T00:00:21;781.50;;;741.17;;
13250;SDS011;6692;50.710;7.180;2022-09-09T00:02:22;771.03;;;732.27;;
13250;SDS011;6692;50.710;7.180;2022-09-09T00:04:25;736.07;;;699.87;;
13250;SDS011;6692;50.710;7.180;2022-09-09T00:06:28;749.93;;;712.67;;
13250;SDS011;6692;50.710;7.180;2022-09-09T00:10:48;736.97;;;699.83;;
13250;SDS011;6692;50.710;7.180;2022-09-09T00:12:51;788.63;;;746.63;;
13250;SDS011;6692;50.710;7.180;2022-09-09T00:15:05;740.23;;;703.90;;
13250;SDS011;6692;50.710;7.180;2022-09-09T00:17:09;768.43;;;728.83;;
13250;SDS011;6692;50.710;7.180;2022-09-09T00:19:20;788.40;;;747.13;;
13250;SDS011;6692;50.710;7.180;2022-09-09T00:21:20;759.83;;;722.00;;
13250;SDS011;6692;50.710;7.180;2022-09-09T00:23:28;750.30;;;713.23;;
13250;SDS011;6692;50.710;7.180;2022-09-09T00:25:33;734.27;;;697.80;;
13250;SDS011;6692;50.710;7.180;2022-09-09T00:27:39;784.93;;;744.27;;
13250;SDS011;6692;50.710;7.180;2022-09-09T00:29:41;754.23;;;716.53;;
13250;SDS011;6692;50.710;7.180;2022-09-09T00:31:40;768.90;;;729.70;;
13250;SDS011;6692;50.710;7.180;2022-09-09T00:33:40;772.23;;;732.43;;
13250;SDS011;6692;50.710;7.180;2022-09-09T00:35:44;778.50;;;738.63;;
13250;SDS011;6692;50.710;7.180;2022-09-09T00:37:45;774.20;;;734.23;;
13250;SDS011;6692;50.710;7.180;2022-09-09T00:39:46;772.03;;;732.30;;
13250;SDS011;6692;50.710;7.180;2022-09-09T00:41:51;750.77;;;713.20;;
13250;SDS011;6692;50.710;7.180;2022-09-09T00:43:56;754.83;;;716.23;;
13250;SDS011;6692;50.710;7.180;2022-09-09T00:46:05;767.57;;;728.57;;
13250;SDS011;6692;50.710;7.180;2022-09-09T00:48:14;762.73;;;723.57;;
13250;SDS011;6692;50.710;7.180;2022-09-09T00:50:35;781.63;;;740.27;;
13250;SDS011;6692;50.710;7.180;2022-09-09T00:52:57;749.50;;;711.93;;
13250;SDS011;6692;50.710;7.180;2022-09-09T00:55:15;702.93;;;669.63;;
13250;SDS011;6692;50.710;7.180;2022-09-09T00:57:22;754.37;;;716.23;;
13250;SDS011;6692;50.710;7.180;2022-09-09T00:59:32;744.30;;;706.63;;
13250;SDS011;6692;50.710;7.180;2022-09-09T01:01:35;771.73;;;732.10;;
13250;SDS011;6692;50.710;7.180;2022-09-09T01:03:37;726.60;;;691.23;;
13250;SDS011;6692;50.710;7.180;2022-09-09T01:05:43;759.57;;;720.73;;
13250;SDS011;6692;50.710;7.180;2022-09-09T01:07:43;793.60;;;752.13;;
13250;SDS011;6692;50.710;7.180;2022-09-09T01:14:13;773.10;;;732.93;;
13250;SDS011;6692;50.710;7.180;2022-09-09T01:16:21;718.30;;;683.43;;
13250;SDS011;6692;50.710;7.180;2022-09-09T01:18:23;720.33;;;685.47;;
13250;SDS011;6692;50.710;7.180;2022-09-09T01:20:24;764.80;;;726.13;;
13250;SDS011;6692;50.710;7.180;2022-09-09T01:22:29;778.23;;;736.70;;
13250;SDS011;6692;50.710;7.180;2022-09-09T01:24:33;816.17;;;772.57;;
13250;SDS011;6692;50.710;7.180;2022-09-09T01:26:35;800.27;;;757.73;;
13250;SDS011;6692;50.710;7.180;2022-09-09T01:28:35;809.80;;;766.57;;
13250;SDS011;6692;50.710;7.180;2022-09-09T01:30:37;785.37;;;745.00;;
13250;SDS011;6692;50.710;7.180;2022-09-09T01:32:41;812.63;;;768.47;;
13250;SDS011;6692;50.710;7.180;2022-09-09T01:34:41;790.70;;;749.07;;
13250;SDS011;6692;50.710;7.180;2022-09-09T01:36:43;814.40;;;770.50;;
13250;SDS011;6692;50.710;7.180;2022-09-09T01:38:46;810.70;;;767.37;;
13250;SDS011;6692;50.710;7.180;2022-09-09T01:40:47;827.90;;;781.77;;
13250;SDS011;6692;50.710;7.180;2022-09-09T01:42:48;814.63;;;771.23;;
13250;SDS011;6692;50.710;7.180;2022-09-09T01:44:48;822.87;;;778.27;;
13250;SDS011;6692;50.710;7.180;2022-09-09T01:46:49;708.47;;;674.87;;
13250;SDS011;6692;50.710;7.180;2022-09-09T01:48:51;759.13;;;720.43;;
13250;SDS011;6692;50.710;7.180;2022-09-09T01:50:51;664.93;;;634.40;;
13250;SDS011;6692;50.710;7.180;2022-09-09T01:52:53;731.60;;;695.47;;
13250;SDS011;6692;50.710;7.180;2022-09-09T01:54:53;779.20;;;739.23;;
13250;SDS011;6692;50.710;7.180;2022-09-09T01:57:30;753.93;;;715.93;;
13250;SDS011;6692;50.710;7.180;2022-09-09T01:59:48;654.67;;;624.93;;
13250;SDS011;6692;50.710;7.180;2022-09-09T02:01:52;694.30;;;661.30;;
13250;SDS011;6692;50.710;7.180;2022-09-09T02:03:52;751.53;;;713.93;;
13250;SDS011;6692;50.710;7.180;2022-09-09T02:06:00;702.27;;;669.17;;
13250;SDS011;6692;50.710;7.180;2022-09-09T02:08:20;680.53;;;648.80;;
13250;SDS011;6692;50.710;7.180;2022-09-09T02:10:22;749.07;;;711.83;;
13250;SDS011;6692;50.710;7.180;2022-09-09T02:12:22;786.23;;;744.77;;
13250;SDS011;6692;50.710;7.180;2022-09-09T02:14:23;808.07;;;764.43;;
13250;SDS011;6692;50.710;7.180;2022-09-09T02:16:28;839.80;;;793.10;;
13250;SDS011;6692;50.710;7.180;2022-09-09T02:18:35;813.83;;;769.63;;
13250;SDS011;6692;50.710;7.180;2022-09-09T02:20:36;829.30;;;784.23;;
13250;SDS011;6692;50.710;7.180;2022-09-09T02:22:38;829.70;;;783.97;;
13250;SDS011;6692;50.710;7.180;2022-09-09T02:24:39;826.03;;;781.93;;
13250;SDS011;6692;50.710;7.180;2022-09-09T02:26:39;823.90;;;778.53;;
13250;SDS011;6692;50.710;7.180;2022-09-09T02:28:39;845.10;;;798.53;;
13250;SDS011;6692;50.710;7.180;2022-09-09T02:30:40;807.93;;;764.80;;
13250;SDS011;6692;50.710;7.180;2022-09-09T02:32:41;854.77;;;806.50;;
13250;SDS011;6692;50.710;7.180;2022-09-09T02:34:43;759.90;;;722.27;;
13250;SDS011;6692;50.710;7.180;2022-09-09T02:36:44;689.07;;;656.83;;
13250;SDS011;6692;50.710;7.180;2022-09-09T02:38:45;708.93;;;674.57;;
13250;SDS011;6692;50.710;7.180;2022-09-09T02:40:45;757.43;;;719.20;;
13250;SDS011;6692;50.710;7.180;2022-09-09T02:42:46;807.03;;;763.93;;
13250;SDS011;6692;50.710;7.180;2022-09-09T02:44:47;817.00;;;772.87;;
13250;SDS011;6692;50.710;7.180;2022-09-09T02:46:55;829.30;;;783.47;;
13250;SDS011;6692;50.710;7.180;2022-09-09T02:49:10;824.60;;;779.20;;
13250;SDS011;6692;50.710;7.180;2022-09-09T02:51:13;838.33;;;792.23;;
13250;SDS011;6692;50.710;7.180;2022-09-09T02:53:16;853.90;;;805.60;;
13250;SDS011;6692;50.710;7.180;2022-09-09T02:55:19;854.83;;;806.10;;
13250;SDS011;6692;50.710;7.180;2022-09-09T02:57:22;879.67;;;829.03;;
13250;SDS011;6692;50.710;7.180;2022-09-09T02:59:21;871.60;;;820.77;;
13250;SDS011;6692;50.710;7.180;2022-09-09T03:01:22;893.03;;;840.17;;
13250;SDS011;6692;50.710;7.180;2022-09-09T03:03:23;884.63;;;832.93;;
13250;SDS011;6692;50.710;7.180;2022-09-09T03:05:23;862.73;;;813.87;;
13250;SDS011;6692;50.710;7.180;2022-09-09T03:07:24;865.13;;;815.13;;
13250;SDS011;6692;50.710;7.180;2022-09-09T03:09:25;872.17;;;821.70;;
13250;SDS011;6692;50.710;7.180;2022-09-09T03:11:26;870.37;;;820.77;;
13250;SDS011;6692;50.710;7.180;2022-09-09T03:13:27;882.10;;;830.63;;
13250;SDS011;6692;50.710;7.180;2022-09-09T03:15:28;871.07;;;820.90;;
13250;SDS011;6692;50.710;7.180;2022-09-09T03:17:28;883.03;;;830.90;;
13250;SDS011;6692;50.710;7.180;2022-09-09T03:19:29;905.03;;;850.93;;
13250;SDS011;6692;50.710;7.180;2022-09-09T03:21:29;891.60;;;838.63;;
13250;SDS011;6692;50.710;7.180;2022-09-09T03:23:30;890.67;;;838.20;;
13250;SDS011;6692;50.710;7.180;2022-09-09T03:25:31;882.37;;;830.40;;
13250;SDS011;6692;50.710;7.180;2022-09-09T03:27:32;895.50;;;842.30;;
13250;SDS011;6692;50.710;7.180;2022-09-09T03:29:32;889.10;;;836.43;;
13250;SDS011;6692;50.710;7.180;2022-09-09T03:31:33;900.17;;;846.73;;
13250;SDS011;6692;50.710;7.180;2022-09-09T03:33:34;874.87;;;824.40;;
13250;SDS011;6692;50.710;7.180;2022-09-09T03:35:35;879.07;;;827.63;;
13250;SDS011;6692;50.710;7.180;2022-09-09T03:37:35;864.30;;;814.50;;
13250;SDS011;6692;50.710;7.180;2022-09-09T03:39:36;888.73;;;836.23;;
13250;SDS011;6692;50.710;7.180;2022-09-09T03:41:36;887.80;;;835.50;;
13250;SDS011;6692;50.710;7.180;2022-09-09T03:43:37;878.73;;;827.13;;
13250;SDS011;6692;50.710;7.180;2022-09-09T03:45:38;884.07;;;832.27;;
13250;SDS011;6692;50.710;7.180;2022-09-09T03:47:38;884.00;;;832.47;;
13250;SDS011;6692;50.710;7.180;2022-09-09T03:49:39;883.43;;;832.03;;
13250;SDS011;6692;50.710;7.180;2022-09-09T03:51:40;852.80;;;805.67;;
13250;SDS011;6692;50.710;7.180;2022-09-09T03:53:40;855.33;;;806.57;;
13250;SDS011;6692;50.710;7.180;2022-09-09T03:55:44;868.57;;;818.17;;
13250;SDS011;6692;50.710;7.180;2022-09-09T03:57:45;858.97;;;809.40;;
13250;SDS011;6692;50.710;7.180;2022-09-09T03:59:46;876.73;;;825.37;;
13250;SDS011;6692;50.710;7.180;2022-09-09T04:01:47;873.97;;;822.53;;
13250;SDS011;6692;50.710;7.180;2022-09-09T04:03:47;878.13;;;826.90;;
13250;SDS011;6692;50.710;7.180;2022-09-09T04:05:48;872.73;;;821.63;;
13250;SDS011;6692;50.710;7.180;2022-09-09T04:07:48;887.63;;;835.03;;
13250;SDS011;6692;50.710;7.180;2022-09-09T04:09:50;887.40;;;835.03;;
13250;SDS011;6692;50.710;7.180;2022-09-09T04:11:50;877.27;;;826.57;;
13250;SDS011;6692;50.710;7.180;2022-09-09T04:13:51;860.93;;;812.10;;
13250;SDS011;6692;50.710;7.180;2022-09-09T04:15:55;864.83;;;815.40;;
13250;SDS011;6692;50.710;7.180;2022-09-09T04:17:55;875.43;;;824.23;;
13250;SDS011;6692;50.710;7.180;2022-09-09T04:19:56;865.33;;;815.93;;
13250;SDS011;6692;50.710;7.180;2022-09-09T04:21:57;860.77;;;811.77;;
13250;SDS011;6692;50.710;7.180;2022-09-09T04:23:58;860.30;;;811.47;;
13250;SDS011;6692;50.710;7.180;2022-09-09T04:26:00;855.90;;;807.20;;
13250;SDS011;6692;50.710;7.180;2022-09-09T04:28:00;847.77;;;799.63;;
13250;SDS011;6692;50.710;7.180;2022-09-09T04:30:00;853.33;;;805.13;;
13250;SDS011;6692;50.710;7.180;2022-09-09T04:32:01;860.47;;;811.43;;
13250;SDS011;6692;50.710;7.180;2022-09-09T04:34:02;880.43;;;828.90;;
13250;SDS011;6692;50.710;7.180;2022-09-09T04:36:02;881.13;;;829.53;;
13250;SDS011;6692;50.710;7.180;2022-09-09T04:38:03;893.40;;;841.50;;
13250;SDS011;6692;50.710;7.180;2022-09-09T04:40:05;874.40;;;822.90;;
13250;SDS011;6692;50.710;7.180;2022-09-09T04:42:06;883.77;;;832.57;;
13250;SDS011;6692;50.710;7.180;2022-09-09T04:44:07;880.80;;;828.50;;
13250;SDS011;6692;50.710;7.180;2022-09-09T04:46:08;884.30;;;833.17;;
13250;SDS011;6692;50.710;7.180;2022-09-09T04:48:09;876.93;;;826.70;;
13250;SDS011;6692;50.710;7.180;2022-09-09T04:50:10;871.17;;;821.23;;
13250;SDS011;6692;50.710;7.180;2022-09-09T04:52:11;876.43;;;826.27;;
13250;SDS011;6692;50.710;7.180;2022-09-09T04:54:11;876.00;;;825.10;;
13250;SDS011;6692;50.710;7.180;2022-09-09T04:56:14;871.27;;;821.33;;
13250;SDS011;6692;50.710;7.180;2022-09-09T04:58:14;851.87;;;803.93;;
13250;SDS011;6692;50.710;7.180;2022-09-09T05:00:14;885.20;;;833.83;;
13250;SDS011;6692;50.710;7.180;2022-09-09T05:02:15;880.70;;;829.90;;
13250;SDS011;6692;50.710;7.180;2022-09-09T05:04:16;886.37;;;834.40;;
13250;SDS011;6692;50.710;7.180;2022-09-09T05:06:17;883.40;;;831.77;;
13250;SDS011;6692;50.710;7.180;2022-09-09T05:08:17;876.13;;;825.07;;
13250;SDS011;6692;50.710;7.180;2022-09-09T05:10:19;889.30;;;836.97;;
13250;SDS011;6692;50.710;7.180;2022-09-09T05:12:19;888.17;;;836.30;;
13250;SDS011;6692;50.710;7.180;2022-09-09T05:14:20;879.43;;;827.97;;
13250;SDS011;6692;50.710;7.180;2022-09-09T05:16:21;887.50;;;835.87;;
13250;SDS011;6692;50.710;7.180;2022-09-09T05:18:21;875.47;;;824.40;;
13250;SDS011;6692;50.710;7.180;2022-09-09T05:20:23;889.43;;;837.40;;
13250;SDS011;6692;50.710;7.180;2022-09-09T05:22:23;876.60;;;825.93;;
13250;SDS011;6692;50.710;7.180;2022-09-09T05:24:25;888.70;;;837.07;;
13250;SDS011;6692;50.710;7.180;2022-09-09T05:26:25;902.23;;;848.63;;
13250;SDS011;6692;50.710;7.180;2022-09-09T05:28:26;909.43;;;855.13;;
13250;SDS011;6692;50.710;7.180;2022-09-09T05:30:26;896.70;;;843.63;;
13250;SDS011;6692;50.710;7.180;2022-09-09T05:32:29;902.50;;;848.87;;
13250;SDS011;6692;50.710;7.180;2022-09-09T05:34:28;889.57;;;837.50;;
13250;SDS011;6692;50.710;7.180;2022-09-09T05:36:28;896.57;;;843.23;;
13250;SDS011;6692;50.710;7.180;2022-09-09T05:38:30;905.00;;;851.20;;
13250;SDS011;6692;50.710;7.180;2022-09-09T05:40:30;899.60;;;846.13;;
13250;SDS011;6692;50.710;7.180;2022-09-09T05:42:31;898.87;;;846.17;;
13250;SDS011;6692;50.710;7.180;2022-09-09T05:44:32;894.63;;;841.27;;
13250;SDS011;6692;50.710;7.180;2022-09-09T05:46:32;887.97;;;835.33;;
13250;SDS011;6692;50.710;7.180;2022-09-09T05:48:34;890.30;;;837.90;;
13250;SDS011;6692;50.710;7.180;2022-09-09T05:50:34;893.67;;;841.37;;
13250;SDS011;6692;50.710;7.180;2022-09-09T05:52:35;889.43;;;836.73;;
13250;SDS011;6692;50.710;7.180;2022-09-09T05:54:36;892.37;;;839.00;;
13250;SDS011;6692;50.710;7.180;2022-09-09T05:56:36;908.57;;;854.47;;
13250;SDS011;6692;50.710;7.180;2022-09-09T05:58:37;886.40;;;834.30;;
13250;SDS011;6692;50.710;7.180;2022-09-09T06:00:38;905.80;;;851.10;;
13250;SDS011;6692;50.710;7.180;2022-09-09T06:02:38;908.93;;;854.23;;
13250;SDS011;6692;50.710;7.180;2022-09-09T06:04:39;900.77;;;847.13;;
13250;SDS011;6692;50.710;7.180;2022-09-09T06:06:39;908.27;;;853.57;;
13250;SDS011;6692;50.710;7.180;2022-09-09T06:08:41;895.67;;;842.60;;
13250;SDS011;6692;50.710;7.180;2022-09-09T06:10:41;898.30;;;844.47;;
13250;SDS011;6692;50.710;7.180;2022-09-09T06:12:41;907.13;;;852.77;;
13250;SDS011;6692;50.710;7.180;2022-09-09T06:14:42;907.00;;;853.00;;
13250;SDS011;6692;50.710;7.180;2022-09-09T06:16:43;888.23;;;836.03;;
13250;SDS011;6692;50.710;7.180;2022-09-09T06:18:43;895.87;;;843.07;;
13250;SDS011;6692;50.710;7.180;2022-09-09T06:23:03;850.97;;;803.67;;
13250;SDS011;6692;50.710;7.180;2022-09-09T06:25:02;873.10;;;823.00;;
13250;SDS011;6692;50.710;7.180;2022-09-09T06:27:03;867.13;;;816.70;;
13250;SDS011;6692;50.710;7.180;2022-09-09T06:29:04;882.13;;;830.63;;
13250;SDS011;6692;50.710;7.180;2022-09-09T06:31:06;876.20;;;825.60;;
13250;SDS011;6692;50.710;7.180;2022-09-09T06:33:07;881.87;;;830.40;;
13250;SDS011;6692;50.710;7.180;2022-09-09T06:35:08;876.67;;;825.30;;
13250;SDS011;6692;50.710;7.180;2022-09-09T06:37:09;881.03;;;830.27;;
13250;SDS011;6692;50.710;7.180;2022-09-09T06:39:10;878.53;;;827.80;;
13250;SDS011;6692;50.710;7.180;2022-09-09T06:41:11;884.00;;;832.87;;
13250;SDS011;6692;50.710;7.180;2022-09-09T06:43:11;875.67;;;824.50;;
13250;SDS011;6692;50.710;7.180;2022-09-09T06:45:12;874.33;;;823.33;;
13250;SDS011;6692;50.710;7.180;2022-09-09T06:47:13;880.37;;;828.70;;
13250;SDS011;6692;50.710;7.180;2022-09-09T06:49:13;899.57;;;846.50;;
13250;SDS011;6692;50.710;7.180;2022-09-09T06:51:15;875.93;;;825.47;;
13250;SDS011;6692;50.710;7.180;2022-09-09T06:53:17;886.67;;;834.90;;
13250;SDS011;6692;50.710;7.180;2022-09-09T06:55:17;870.77;;;820.10;;
13250;SDS011;6692;50.710;7.180;2022-09-09T06:57:18;880.60;;;829.43;;
13250;SDS011;6692;50.710;7.180;2022-09-09T06:59:18;888.83;;;836.47;;
13250;SDS011;6692;50.710;7.180;2022-09-09T07:01:20;867.03;;;816.57;;
13250;SDS011;6692;50.710;7.180;2022-09-09T07:03:19;854.47;;;806.03;;
13250;SDS011;6692;50.710;7.180;2022-09-09T07:05:20;861.33;;;812.47;;
13250;SDS011;6692;50.710;7.180;2022-09-09T07:07:21;880.20;;;829.00;;
13250;SDS011;6692;50.710;7.180;2022-09-09T07:09:22;862.17;;;812.87;;
13250;SDS011;6692;50.710;7.180;2022-09-09T07:11:24;881.57;;;830.57;;
13250;SDS011;6692;50.710;7.180;2022-09-09T07:13:24;874.90;;;824.30;;
13250;SDS011;6692;50.710;7.180;2022-09-09T07:15:24;858.73;;;809.40;;
13250;SDS011;6692;50.710;7.180;2022-09-09T07:17:25;874.70;;;824.97;;
13250;SDS011;6692;50.710;7.180;2022-09-09T07:19:25;887.47;;;835.23;;
13250;SDS011;6692;50.710;7.180;2022-09-09T07:21:27;874.93;;;824.13;;
13250;SDS011;6692;50.710;7.180;2022-09-09T07:23:27;885.57;;;833.97;;
13250;SDS011;6692;50.710;7.180;2022-09-09T07:25:28;888.20;;;835.87;;
13250;SDS011;6692;50.710;7.180;2022-09-09T07:27:28;899.87;;;846.73;;
13250;SDS011;6692;50.710;7.180;2022-09-09T07:29:29;881.57;;;829.73;;
13250;SDS011;6692;50.710;7.180;2022-09-09T07:31:31;883.23;;;831.30;;
13250;SDS011;6692;50.710;7.180;2022-09-09T07:33:31;883.13;;;831.13;;
13250;SDS011;6692;50.710;7.180;2022-09-09T07:35:31;840.10;;;794.40;;
13250;SDS011;6692;50.710;7.180;2022-09-09T07:37:32;882.47;;;831.57;;
13250;SDS011;6692;50.710;7.180;2022-09-09T07:39:32;877.50;;;827.17;;
13250;SDS011;6692;50.710;7.180;2022-09-09T07:41:34;893.53;;;841.07;;
13250;SDS011;6692;50.710;7.180;2022-09-09T07:43:34;906.93;;;852.47;;
13250;SDS011;6692;50.710;7.180;2022-09-09T07:45:34;765.90;;;727.23;;
13250;SDS011;6692;50.710;7.180;2022-09-09T07:47:35;785.97;;;745.20;;
13250;SDS011;6692;50.710;7.180;2022-09-09T07:49:36;690.47;;;658.40;;
13250;SDS011;6692;50.710;7.180;2022-09-09T07:51:38;562.97;;;539.60;;
13250;SDS011;6692;50.710;7.180;2022-09-09T07:53:38;581.87;;;556.77;;
13250;SDS011;6692;50.710;7.180;2022-09-09T07:55:38;640.13;;;611.17;;
13250;SDS011;6692;50.710;7.180;2022-09-09T07:57:40;658.10;;;628.83;;
13250;SDS011;6692;50.710;7.180;2022-09-09T07:59:40;689.93;;;657.93;;
13250;SDS011;6692;50.710;7.180;2022-09-09T08:01:43;744.37;;;707.53;;
13250;SDS011;6692;50.710;7.180;2022-09-09T08:03:44;583.40;;;558.33;;
13250;SDS011;6692;50.710;7.180;2022-09-09T08:05:44;503.10;;;482.90;;
13250;SDS011;6692;50.710;7.180;2022-09-09T08:07:44;566.80;;;543.30;;
13250;SDS011;6692;50.710;7.180;2022-09-09T08:09:45;612.47;;;585.13;;
13250;SDS011;6692;50.710;7.180;2022-09-09T08:11:46;687.90;;;655.27;;
13250;SDS011;6692;50.710;7.180;2022-09-09T08:13:46;687.23;;;655.33;;
13250;SDS011;6692;50.710;7.180;2022-09-09T08:15:47;623.67;;;596.20;;
13250;SDS011;6692;50.710;7.180;2022-09-09T08:17:48;512.53;;;491.80;;
13250;SDS011;6692;50.710;7.180;2022-09-09T08:19:48;653.33;;;623.80;;
13250;SDS011;6692;50.710;7.180;2022-09-09T08:21:49;679.57;;;647.73;;
13250;SDS011;6692;50.710;7.180;2022-09-09T08:23:50;674.73;;;643.87;;
13250;SDS011;6692;50.710;7.180;2022-09-09T08:25:50;620.07;;;592.80;;
13250;SDS011;6692;50.710;7.180;2022-09-09T08:27:52;536.73;;;514.63;;
13250;SDS011;6692;50.710;7.180;2022-09-09T08:29:52;651.67;;;621.70;;
13250;SDS011;6692;50.710;7.180;2022-09-09T08:31:53;630.43;;;602.27;;
13250;SDS011;6692;50.710;7.180;2022-09-09T08:33:54;665.20;;;634.60;;
13250;SDS011;6692;50.710;7.180;2022-09-09T08:35:54;627.97;;;600.07;;
13250;SDS011;6692;50.710;7.180;2022-09-09T08:37:55;582.33;;;557.07;;
13250;SDS011;6692;50.710;7.180;2022-09-09T08:39:55;551.67;;;528.63;;
13250;SDS011;6692;50.710;7.180;2022-09-09T08:42:30;538.50;;;516.07;;
13250;SDS011;6692;50.710;7.180;2022-09-09T08:47:00;228.17;;;219.83;;
13250;SDS011;6692;50.710;7.180;2022-09-09T08:49:19;234.57;;;226.13;;
13250;SDS011;6692;50.710;7.180;2022-09-09T08:51:17;464.23;;;445.90;;
13250;SDS011;6692;50.710;7.180;2022-09-09T08:53:20;340.50;;;327.40;;
13250;SDS011;6692;50.710;7.180;2022-09-09T08:55:24;387.87;;;372.93;;
13250;SDS011;6692;50.710;7.180;2022-09-09T08:57:28;475.00;;;456.33;;
13250;SDS011;6692;50.710;7.180;2022-09-09T08:59:27;585.77;;;560.47;;
13250;SDS011;6692;50.710;7.180;2022-09-09T09:01:34;607.13;;;580.40;;
13250;SDS011;6692;50.710;7.180;2022-09-09T09:03:35;586.97;;;561.67;;
13250;SDS011;6692;50.710;7.180;2022-09-09T09:05:57;430.97;;;414.67;;
13250;SDS011;6692;50.710;7.180;2022-09-09T09:08:03;357.60;;;344.13;;
13250;SDS011;6692;50.710;7.180;2022-09-09T09:10:12;254.40;;;244.97;;
13250;SDS011;6692;50.710;7.180;2022-09-09T09:12:15;180.40;;;173.70;;
13250;SDS011;6692;50.710;7.180;2022-09-09T09:14:17;268.13;;;258.47;;
13250;SDS011;6692;50.710;7.180;2022-09-09T09:16:22;183.87;;;177.40;;
13250;SDS011;6692;50.710;7.180;2022-09-09T09:18:22;272.07;;;262.33;;
13250;SDS011;6692;50.710;7.180;2022-09-09T09:20:27;257.73;;;248.27;;
13250;SDS011;6692;50.710;7.180;2022-09-09T09:22:28;395.83;;;380.77;;
13250;SDS011;6692;50.710;7.180;2022-09-09T09:24:39;307.80;;;296.40;;
13250;SDS011;6692;50.710;7.180;2022-09-09T09:26:56;235.63;;;227.23;;
13250;SDS011;6692;50.710;7.180;2022-09-09T09:28:57;151.97;;;146.30;;
13250;SDS011;6692;50.710;7.180;2022-09-09T09:30:59;128.00;;;123.23;;
13250;SDS011;6692;50.710;7.180;2022-09-09T09:33:03;291.10;;;280.67;;
13250;SDS011;6692;50.710;7.180;2022-09-09T09:35:06;143.80;;;138.40;;
13250;SDS011;6692;50.710;7.180;2022-09-09T09:37:07;188.97;;;182.33;;
13250;SDS011;6692;50.710;7.180;2022-09-09T09:39:07;182.03;;;175.23;;
13250;SDS011;6692;50.710;7.180;2022-09-09T09:41:07;236.80;;;228.43;;
13250;SDS011;6692;50.710;7.180;2022-09-09T09:43:16;188.03;;;181.10;;
13250;SDS011;6692;50.710;7.180;2022-09-09T09:47:16;225.80;;;217.73;;
13250;SDS011;6692;50.710;7.180;2022-09-09T09:49:15;268.67;;;259.13;;
13250;SDS011;6692;50.710;7.180;2022-09-09T09:51:16;213.27;;;205.40;;
13250;SDS011;6692;50.710;7.180;2022-09-09T09:53:19;338.87;;;326.23;;
13250;SDS011;6692;50.710;7.180;2022-09-09T09:55:18;322.00;;;310.17;;
13250;SDS011;6692;50.710;7.180;2022-09-09T09:57:22;109.30;;;105.27;;
13250;SDS011;6692;50.710;7.180;2022-09-09T10:01:36;151.17;;;145.77;;
13250;SDS011;6692;50.710;7.180;2022-09-09T10:03:36;174.10;;;167.83;;
13250;SDS011;6692;50.710;7.180;2022-09-09T10:05:37;306.70;;;295.53;;
13250;SDS011;6692;50.710;7.180;2022-09-09T10:07:38;325.57;;;313.47;;
13250;SDS011;6692;50.710;7.180;2022-09-09T10:09:38;246.07;;;237.30;;
13250;SDS011;6692;50.710;7.180;2022-09-09T10:11:43;313.67;;;302.07;;
13250;SDS011;6692;50.710;7.180;2022-09-09T10:14:17;213.43;;;205.73;;
13250;SDS011;6692;50.710;7.180;2022-09-09T10:16:09;216.40;;;208.83;;
13250;SDS011;6692;50.710;7.180;2022-09-09T10:20:42;142.47;;;137.33;;
13250;SDS011;6692;50.710;7.180;2022-09-09T10:25:34;136.50;;;131.37;;
13250;SDS011;6692;50.710;7.180;2022-09-09T10:27:38;238.17;;;229.77;;
13250;SDS011;6692;50.710;7.180;2022-09-09T10:29:44;208.10;;;200.47;;
13250;SDS011;6692;50.710;7.180;2022-09-09T10:32:00;151.00;;;145.30;;
13250;SDS011;6692;50.710;7.180;2022-09-09T10:34:19;145.37;;;140.03;;
13250;SDS011;6692;50.710;7.180;2022-09-09T10:36:24;130.87;;;126.13;;
13250;SDS011;6692;50.710;7.180;2022-09-09T10:38:40;116.50;;;112.13;;
13250;SDS011;6692;50.710;7.180;2022-09-09T10:40:47;98.00;;;94.33;;
13250;SDS011;6692;50.710;7.180;2022-09-09T10:42:50;236.37;;;227.63;;
13250;SDS011;6692;50.710;7.180;2022-09-09T10:45:02;204.33;;;197.03;;
13250;SDS011;6692;50.710;7.180;2022-09-09T10:47:07;100.10;;;96.43;;
13250;SDS011;6692;50.710;7.180;2022-09-09T10:51:37;254.90;;;245.63;;
13250;SDS011;6692;50.710;7.180;2022-09-09T10:55:50;182.20;;;175.70;;
13250;SDS011;6692;50.710;7.180;2022-09-09T10:57:49;317.13;;;305.30;;
13250;SDS011;6692;50.710;7.180;2022-09-09T10:59:51;313.60;;;302.07;;
13250;SDS011;6692;50.710;7.180;2022-09-09T11:01:53;332.50;;;320.13;;
13250;SDS011;6692;50.710;7.180;2022-09-09T11:03:54;376.23;;;361.90;;
13250;SDS011;6692;50.710;7.180;2022-09-09T11:05:56;454.00;;;436.03;;
13250;SDS011;6692;50.710;7.180;2022-09-09T11:07:57;504.63;;;483.87;;
13250;SDS011;6692;50.710;7.180;2022-09-09T11:10:01;278.60;;;268.30;;
13250;SDS011;6692;50.710;7.180;2022-09-09T11:12:01;331.13;;;318.50;;
13250;SDS011;6692;50.710;7.180;2022-09-09T11:14:05;453.83;;;435.90;;
13250;SDS011;6692;50.710;7.180;2022-09-09T11:16:05;403.27;;;387.77;;
13250;SDS011;6692;50.710;7.180;2022-09-09T11:18:13;255.60;;;246.30;;
13250;SDS011;6692;50.710;7.180;2022-09-09T11:20:15;359.43;;;346.03;;
13250;SDS011;6692;50.710;7.180;2022-09-09T11:22:20;468.73;;;449.70;;
13250;SDS011;6692;50.710;7.180;2022-09-09T11:24:37;443.03;;;425.50;;
13250;SDS011;6692;50.710;7.180;2022-09-09T11:26:38;285.90;;;275.77;;
13250;SDS011;6692;50.710;7.180;2022-09-09T11:28:46;200.53;;;193.30;;
13250;SDS011;6692;50.710;7.180;2022-09-09T11:31:30;354.17;;;340.60;;
13250;SDS011;6692;50.710;7.180;2022-09-09T11:33:19;203.83;;;196.53;;
13250;SDS011;6692;50.710;7.180;2022-09-09T11:35:22;163.07;;;157.17;;
13250;SDS011;6692;50.710;7.180;2022-09-09T11:37:30;215.90;;;208.00;;
13250;SDS011;6692;50.710;7.180;2022-09-09T11:39:36;209.23;;;201.70;;
13250;SDS011;6692;50.710;7.180;2022-09-09T11:41:37;208.67;;;201.30;;
13250;SDS011;6692;50.710;7.180;2022-09-09T11:43:39;179.47;;;172.90;;
13250;SDS011;6692;50.710;7.180;2022-09-09T11:45:39;210.37;;;202.93;;
13250;SDS011;6692;50.710;7.180;2022-09-09T11:47:41;344.00;;;331.17;;
13250;SDS011;6692;50.710;7.180;2022-09-09T11:49:41;303.87;;;292.77;;
13250;SDS011;6692;50.710;7.180;2022-09-09T11:51:42;428.07;;;411.50;;
13250;SDS011;6692;50.710;7.180;2022-09-09T11:56:08;143.70;;;138.67;;
13250;SDS011;6692;50.710;7.180;2022-09-09T11:58:16;384.47;;;369.77;;
13250;SDS011;6692;50.710;7.180;2022-09-09T12:02:29;263.77;;;254.30;;
13250;SDS011;6692;50.710;7.180;2022-09-09T12:04:32;419.83;;;403.40;;
13250;SDS011;6692;50.710;7.180;2022-09-09T12:08:42;425.23;;;408.90;;
13250;SDS011;6692;50.710;7.180;2022-09-09T12:10:52;358.40;;;344.90;;
13250;SDS011;6692;50.710;7.180;2022-09-09T12:12:42;464.93;;;445.83;;
13250;SDS011;6692;50.710;7.180;2022-09-09T12:14:54;460.63;;;441.77;;
13250;SDS011;6692;50.710;7.180;2022-09-09T12:16:44;358.47;;;345.07;;
13250;SDS011;6692;50.710;7.180;2022-09-09T12:18:44;475.63;;;456.33;;